createdAt,value
2018-12-11T00:02:12.084Z,11.27
2018-12-11T00:04:40.276Z,10.33
2018-12-11T00:07:08.559Z,10.00
2018-12-11T00:09:36.838Z,5.97
2018-12-11T00:12:05.044Z,20.70
2018-12-11T00:14:33.747Z,12.23
2018-12-11T00:17:02.116Z,6.77
2018-12-11T00:19:30.389Z,6.70
2018-12-11T00:21:58.581Z,6.03
2018-12-11T00:24:26.766Z,8.30
2018-12-11T00:26:54.965Z,8.80
2018-12-11T00:29:23.148Z,5.97
2018-12-11T00:31:51.373Z,10.30
2018-12-11T00:34:19.640Z,10.17
2018-12-11T00:36:47.904Z,9.47
2018-12-11T00:39:16.084Z,9.10
2018-12-11T00:41:44.293Z,6.73
2018-12-11T00:44:12.563Z,6.90
2018-12-11T00:46:40.940Z,6.07
2018-12-11T00:49:09.124Z,4.03
2018-12-11T00:51:37.334Z,6.77
2018-12-11T00:54:05.523Z,9.50
2018-12-11T00:56:33.709Z,6.70
2018-12-11T00:59:01.907Z,10.43
2018-12-11T01:01:30.244Z,3.37
2018-12-11T01:03:58.438Z,3.90
2018-12-11T01:06:26.664Z,5.93
2018-12-11T01:08:55.049Z,7.03
2018-12-11T01:11:23.245Z,6.50
2018-12-11T01:13:51.438Z,5.30
2018-12-11T01:16:19.630Z,5.07
2018-12-11T01:18:47.820Z,4.27
2018-12-11T01:21:16.015Z,3.53
2018-12-11T01:23:44.290Z,6.80
2018-12-11T01:26:12.524Z,5.63
2018-12-11T01:28:40.706Z,2.67
2018-12-11T01:31:08.890Z,4.10
2018-12-11T01:33:37.082Z,8.73
2018-12-11T01:36:05.269Z,5.67
2018-12-11T01:38:33.449Z,4.43
2018-12-11T01:41:01.636Z,8.10
2018-12-11T01:43:29.833Z,6.40
2018-12-11T01:45:58.016Z,15.80
2018-12-11T01:48:26.277Z,6.13
2018-12-11T01:50:54.473Z,4.53
2018-12-11T01:53:22.708Z,6.77
2018-12-11T01:55:51.035Z,7.17
2018-12-11T01:58:19.200Z,6.77
2018-12-11T02:00:47.462Z,2.20
2018-12-11T02:03:15.780Z,3.50
2018-12-11T02:05:43.981Z,15.63
2018-12-11T02:08:12.385Z,8.57
2018-12-11T02:10:40.657Z,7.30
2018-12-11T02:13:08.872Z,6.63
2018-12-11T02:15:37.093Z,11.50
2018-12-11T02:18:05.303Z,10.27
2018-12-11T02:20:33.602Z,3.00
2018-12-11T02:23:01.822Z,4.63
2018-12-11T02:25:30.029Z,4.20
2018-12-11T02:27:58.228Z,7.13
2018-12-11T02:30:26.512Z,2.90
2018-12-11T02:32:54.719Z,12.73
2018-12-11T02:35:23.011Z,5.57
2018-12-11T02:37:51.299Z,7.23
2018-12-11T02:40:19.492Z,3.30
2018-12-11T02:42:47.705Z,2.83
2018-12-11T02:45:15.992Z,3.07
2018-12-11T02:47:44.206Z,7.23
2018-12-11T02:50:12.494Z,8.40
2018-12-11T02:52:40.708Z,3.60
2018-12-11T02:55:08.910Z,4.00
2018-12-11T02:57:37.121Z,3.40
2018-12-11T03:00:06.831Z,5.73
2018-12-11T03:02:35.213Z,7.70
2018-12-11T03:05:03.908Z,17.20
2018-12-11T03:07:32.118Z,6.30
2018-12-11T03:10:00.317Z,5.43
2018-12-11T03:12:28.514Z,4.10
2018-12-11T03:14:56.705Z,12.17
2018-12-11T03:17:24.889Z,10.23
2018-12-11T03:19:53.087Z,11.77
2018-12-11T03:22:21.475Z,8.87
2018-12-11T03:24:49.655Z,6.53
2018-12-11T03:27:17.836Z,4.20
2018-12-11T03:29:46.089Z,15.97
2018-12-11T03:32:14.275Z,8.23
2018-12-11T03:34:42.466Z,16.83
2018-12-11T03:37:10.641Z,8.47
2018-12-11T03:39:38.840Z,9.63
2018-12-11T03:42:07.133Z,17.73
2018-12-11T03:44:35.422Z,13.00
2018-12-11T03:47:03.597Z,4.20
2018-12-11T03:49:31.790Z,7.97
2018-12-11T03:51:59.969Z,11.70
2018-12-11T03:54:28.154Z,6.80
2018-12-11T03:56:56.337Z,8.03
2018-12-11T03:59:24.537Z,5.70
2018-12-11T04:01:52.712Z,9.77
2018-12-11T04:04:20.914Z,9.57
2018-12-11T04:06:49.096Z,7.33
2018-12-11T04:09:17.302Z,6.20
2018-12-11T04:11:45.507Z,18.00
2018-12-11T04:14:13.777Z,14.23
2018-12-11T04:16:42.068Z,10.70
2018-12-11T04:19:10.276Z,10.33
2018-12-11T04:21:38.528Z,7.60
2018-12-11T04:24:06.836Z,15.53
2018-12-11T04:26:35.133Z,14.60
2018-12-11T04:29:03.337Z,8.90
2018-12-11T04:31:31.525Z,4.70
2018-12-11T04:33:59.733Z,5.73
2018-12-11T04:36:27.920Z,6.13
2018-12-11T04:38:56.133Z,5.90
2018-12-11T04:41:24.339Z,20.80
2018-12-11T04:43:52.536Z,9.20
2018-12-11T04:46:20.788Z,3.27
2018-12-11T04:48:49.043Z,15.83
2018-12-11T04:51:17.241Z,6.90
2018-12-11T04:53:45.444Z,7.53
2018-12-11T04:56:13.641Z,3.67
2018-12-11T04:58:41.958Z,4.90
2018-12-11T05:01:10.156Z,3.93
2018-12-11T05:03:38.425Z,5.50
2018-12-11T05:06:06.628Z,4.83
2018-12-11T05:08:34.844Z,4.97
2018-12-11T05:11:03.072Z,9.30
2018-12-11T05:13:31.276Z,6.17
2018-12-11T05:15:59.484Z,4.37
2018-12-11T05:18:27.688Z,2.83
2018-12-11T05:20:55.901Z,5.43
2018-12-11T05:23:24.104Z,2.93
2018-12-11T05:25:52.404Z,3.77
2018-12-11T05:28:20.637Z,2.60
2018-12-11T05:30:48.848Z,3.90
2018-12-11T05:33:17.054Z,4.40
2018-12-11T05:35:45.262Z,11.30
2018-12-11T05:38:13.570Z,2.90
2018-12-11T05:40:41.776Z,4.10
2018-12-11T05:43:09.966Z,8.30
2018-12-11T05:45:38.198Z,2.50
2018-12-11T05:48:06.473Z,8.37
2018-12-11T05:50:34.678Z,6.50
2018-12-11T05:53:02.876Z,30.87
2018-12-11T05:55:31.108Z,8.33
2018-12-11T05:57:59.323Z,3.23
2018-12-11T06:00:27.540Z,11.13
2018-12-11T06:02:55.753Z,10.77
2018-12-11T06:05:23.970Z,4.20
2018-12-11T06:07:52.182Z,7.00
2018-12-11T06:10:20.388Z,2.43
2018-12-11T06:12:48.597Z,5.80
2018-12-11T06:15:16.804Z,2.97
2018-12-11T06:17:45.101Z,5.27
2018-12-11T06:20:13.385Z,4.57
2018-12-11T06:22:41.564Z,5.50
2018-12-11T06:25:09.761Z,5.03
2018-12-11T06:27:38.016Z,14.97
2018-12-11T06:30:07.788Z,6.67
2018-12-11T06:32:35.968Z,2.67
2018-12-11T06:35:04.436Z,2.87
2018-12-11T06:37:32.719Z,4.10
2018-12-11T06:40:01.001Z,8.83
2018-12-11T06:42:29.180Z,6.93
2018-12-11T06:44:57.368Z,7.07
2018-12-11T06:47:25.557Z,3.80
2018-12-11T06:49:53.744Z,7.50
2018-12-11T06:52:21.928Z,8.20
2018-12-11T06:54:50.117Z,9.83
2018-12-11T06:57:18.315Z,33.43
2018-12-11T06:59:46.512Z,7.17
2018-12-11T07:02:14.700Z,3.57
2018-12-11T07:04:42.889Z,3.60
2018-12-11T07:07:11.108Z,3.33
2018-12-11T07:09:39.304Z,5.63
2018-12-11T07:12:07.508Z,9.17
2018-12-11T07:14:35.713Z,12.53
2018-12-11T07:17:03.929Z,11.57
2018-12-11T07:19:32.160Z,5.80
2018-12-11T07:22:00.366Z,14.80
2018-12-11T07:24:28.666Z,8.17
2018-12-11T07:26:56.927Z,5.30
2018-12-11T07:29:25.157Z,6.60
2018-12-11T07:31:53.361Z,11.43
2018-12-11T07:34:21.570Z,6.00
2018-12-11T07:36:49.787Z,5.30
2018-12-11T07:39:18.005Z,6.37
2018-12-11T07:41:46.205Z,5.60
2018-12-11T07:44:14.413Z,4.10
2018-12-11T07:46:42.700Z,9.47
2018-12-11T07:49:10.896Z,8.33
2018-12-11T07:51:39.184Z,4.37
2018-12-11T07:54:07.393Z,3.20
2018-12-11T07:56:35.640Z,11.23
2018-12-11T07:59:03.940Z,22.23
2018-12-11T08:01:32.228Z,8.70
2018-12-11T08:04:00.433Z,6.37
2018-12-11T08:06:28.645Z,2.90
2018-12-11T08:08:56.844Z,5.17
2018-12-11T08:11:25.048Z,3.83
2018-12-11T08:13:53.249Z,6.10
2018-12-11T08:16:21.678Z,7.10
2018-12-11T08:18:50.551Z,3.30
2018-12-11T08:21:18.752Z,5.37
2018-12-11T08:23:47.020Z,8.53
2018-12-11T08:26:15.224Z,6.37
2018-12-11T08:28:43.412Z,3.00
2018-12-11T08:31:11.697Z,6.30
2018-12-11T08:33:39.879Z,2.70
2018-12-11T08:36:08.072Z,6.83
2018-12-11T08:38:36.257Z,6.73
2018-12-11T08:41:04.466Z,4.97
2018-12-11T08:43:32.644Z,4.97
2018-12-11T08:46:00.843Z,15.83
2018-12-11T08:48:29.131Z,2.97
2018-12-11T08:50:57.332Z,4.80
2018-12-11T08:53:25.505Z,5.70
2018-12-11T08:55:53.716Z,3.07
2018-12-11T08:58:22.732Z,7.13
2018-12-11T09:00:51.089Z,3.03
2018-12-11T09:03:19.268Z,3.70
2018-12-11T09:05:47.465Z,3.07
2018-12-11T09:08:15.894Z,5.27
2018-12-11T09:10:44.054Z,9.07
2018-12-11T09:13:12.252Z,8.80
2018-12-11T09:15:40.439Z,12.80
2018-12-11T09:18:08.638Z,5.90
2018-12-11T09:20:36.817Z,9.50
2018-12-11T09:23:05.016Z,11.10
2018-12-11T09:25:33.214Z,7.10
2018-12-11T09:28:01.456Z,5.77
2018-12-11T09:30:29.633Z,8.50
2018-12-11T09:32:57.909Z,15.60
2018-12-11T09:35:26.196Z,5.70
2018-12-11T09:37:54.393Z,5.17
2018-12-11T09:40:24.623Z,7.40
2018-12-11T09:42:52.762Z,10.60
2018-12-11T09:45:21.005Z,6.17
2018-12-11T09:47:49.205Z,12.87
2018-12-11T09:50:17.401Z,10.23
2018-12-11T09:52:45.596Z,3.30
2018-12-11T09:55:13.887Z,5.13
2018-12-11T09:57:42.066Z,3.17
2018-12-11T10:00:10.360Z,10.70
2018-12-11T10:02:38.588Z,6.43
2018-12-11T10:05:06.788Z,3.60
2018-12-11T10:07:35.076Z,5.97
2018-12-11T10:10:03.437Z,3.33
2018-12-11T10:12:31.704Z,4.53
2018-12-11T10:14:59.887Z,3.87
2018-12-11T10:17:28.096Z,2.83
2018-12-11T10:19:56.312Z,7.53
2018-12-11T10:22:24.521Z,6.17
2018-12-11T10:24:52.705Z,10.03
2018-12-11T10:27:20.989Z,4.60
2018-12-11T10:29:49.174Z,7.60
2018-12-11T10:32:17.361Z,6.40
2018-12-11T10:34:45.544Z,21.00
2018-12-11T10:37:13.812Z,4.97
2018-12-11T10:39:42.074Z,8.13
2018-12-11T10:42:10.277Z,4.50
2018-12-11T10:44:38.623Z,8.73
2018-12-11T10:47:06.908Z,3.03
2018-12-11T10:49:35.194Z,10.97
2018-12-11T10:52:03.560Z,9.40
2018-12-11T10:54:31.744Z,10.80
2018-12-11T10:56:59.961Z,5.00
2018-12-11T10:59:28.142Z,4.70
2018-12-11T11:01:58.309Z,3.27
2018-12-11T11:04:26.480Z,4.53
2018-12-11T11:06:54.674Z,3.53
2018-12-11T11:09:22.857Z,3.90
2018-12-11T11:11:51.073Z,3.83
2018-12-11T11:14:19.334Z,4.70
2018-12-11T11:16:47.512Z,5.03
2018-12-11T11:19:15.729Z,4.80
2018-12-11T11:21:43.903Z,4.00
2018-12-11T11:24:12.092Z,5.97
2018-12-11T11:26:40.280Z,5.80
2018-12-11T11:29:08.531Z,3.50
2018-12-11T11:31:36.716Z,8.40
2018-12-11T11:34:04.914Z,4.47
2018-12-11T11:36:33.084Z,8.37
2018-12-11T11:39:01.290Z,6.83
2018-12-11T11:41:29.452Z,7.03
2018-12-11T11:43:57.946Z,3.87
2018-12-11T11:46:26.314Z,5.63
2018-12-11T11:48:54.500Z,6.10
2018-12-11T11:51:22.689Z,5.50
2018-12-11T11:53:50.873Z,8.23
2018-12-11T11:56:19.044Z,5.60
2018-12-11T11:58:47.224Z,6.30
2018-12-11T12:01:15.488Z,12.77
2018-12-11T12:03:43.765Z,4.40
2018-12-11T12:06:11.945Z,6.60
2018-12-11T12:08:40.137Z,7.20
2018-12-11T12:11:08.337Z,4.90
2018-12-11T12:13:36.544Z,4.07
2018-12-11T12:16:04.747Z,5.57
2018-12-11T12:18:32.956Z,11.53
2018-12-11T12:21:01.142Z,11.47
2018-12-11T12:23:29.340Z,5.37
2018-12-11T12:25:57.532Z,6.83
2018-12-11T12:28:25.744Z,11.87
2018-12-11T12:30:55.896Z,18.07
2018-12-11T12:33:24.110Z,13.10
2018-12-11T12:35:52.396Z,76.73
2018-12-11T12:38:20.648Z,47.00
2018-12-11T12:40:48.856Z,15.13
2018-12-11T12:43:17.096Z,20.13
2018-12-11T12:45:45.372Z,17.93
2018-12-11T12:48:13.586Z,7.77
2018-12-11T12:50:41.795Z,7.97
2018-12-11T12:53:10.002Z,8.07
2018-12-11T12:55:38.201Z,9.23
2018-12-11T12:58:06.405Z,8.53
2018-12-11T13:00:34.596Z,5.43
2018-12-11T13:03:02.809Z,15.70
2018-12-11T13:05:31.003Z,7.80
2018-12-11T13:07:59.276Z,4.47
2018-12-11T13:10:27.469Z,5.97
2018-12-11T13:12:55.860Z,5.10
2018-12-11T13:15:24.052Z,5.00
2018-12-11T13:17:52.249Z,5.80
2018-12-11T13:20:20.448Z,6.93
2018-12-11T13:22:50.049Z,7.27
2018-12-11T13:25:18.253Z,13.87
2018-12-11T13:27:46.528Z,11.17
2018-12-11T13:30:14.742Z,6.10
2018-12-11T13:32:42.968Z,6.80
2018-12-11T13:35:11.165Z,7.80
2018-12-11T13:37:39.394Z,13.43
2018-12-11T13:40:07.804Z,10.20
2018-12-11T13:42:36.017Z,10.40
2018-12-11T13:45:04.866Z,20.20
2018-12-11T13:47:33.126Z,16.90
2018-12-11T13:50:01.330Z,10.23
2018-12-11T13:52:29.540Z,7.17
2018-12-11T13:54:57.756Z,8.83
2018-12-11T13:57:25.960Z,11.13
2018-12-11T13:59:54.160Z,7.27
2018-12-11T14:02:22.377Z,13.43
2018-12-11T14:04:50.585Z,9.47
2018-12-11T14:07:18.805Z,11.67
2018-12-11T14:09:47.306Z,8.70
2018-12-11T14:12:15.508Z,7.57
2018-12-11T14:14:43.716Z,6.63
2018-12-11T14:17:11.932Z,9.57
2018-12-11T14:19:40.144Z,9.00
2018-12-11T14:22:08.336Z,7.40
2018-12-11T14:24:36.564Z,8.33
2018-12-11T14:27:04.852Z,6.13
2018-12-11T14:29:33.237Z,4.80
2018-12-11T14:32:01.441Z,13.90
2018-12-11T14:34:29.741Z,5.37
2018-12-11T14:36:57.949Z,4.03
2018-12-11T14:39:26.161Z,3.87
2018-12-11T14:41:54.367Z,4.17
2018-12-11T14:44:22.728Z,3.90
2018-12-11T14:46:50.973Z,4.43
2018-12-11T14:49:19.187Z,3.60
2018-12-11T14:51:47.389Z,4.53
2018-12-11T14:54:15.600Z,4.20
2018-12-11T14:56:43.796Z,5.53
2018-12-11T14:59:12.008Z,8.27
2018-12-11T15:01:40.215Z,5.90
2018-12-11T15:04:08.420Z,6.13
2018-12-11T15:06:36.716Z,8.43
2018-12-11T15:09:13.300Z,7.23
2018-12-11T15:11:41.683Z,8.57
2018-12-11T15:14:09.892Z,9.30
2018-12-11T15:16:38.395Z,14.07
2018-12-11T15:19:06.605Z,8.33
2018-12-11T15:21:34.805Z,8.83
2018-12-11T15:24:03.008Z,5.27
2018-12-11T15:26:31.210Z,5.83
2018-12-11T15:28:59.416Z,5.17
2018-12-11T15:31:27.629Z,8.90
2018-12-11T15:33:55.840Z,9.40
2018-12-11T15:36:24.040Z,10.93
2018-12-11T15:38:52.244Z,12.40
2018-12-11T15:41:20.452Z,12.63
2018-12-11T15:43:48.713Z,31.00
2018-12-11T15:46:17.009Z,12.20
2018-12-11T15:48:45.296Z,18.23
2018-12-11T15:51:13.506Z,27.13
2018-12-11T15:53:41.710Z,33.87
2018-12-11T15:56:09.916Z,21.13
2018-12-11T15:58:38.128Z,18.73
2018-12-11T16:01:06.337Z,20.87
2018-12-11T16:03:34.548Z,17.63
2018-12-11T16:06:02.801Z,28.80
2018-12-11T16:08:31.096Z,18.83
2018-12-11T16:10:59.390Z,18.40
2018-12-11T16:13:27.601Z,16.80
2018-12-11T16:15:55.817Z,26.67
2018-12-11T16:18:24.072Z,15.57
2018-12-11T16:20:52.280Z,12.97
2018-12-11T16:23:20.480Z,30.03
2018-12-11T16:25:48.680Z,22.70
2018-12-11T16:28:16.987Z,18.13
2018-12-11T16:30:45.192Z,11.83
2018-12-11T16:33:13.388Z,13.53
2018-12-11T16:35:41.603Z,9.73
2018-12-11T16:38:09.896Z,12.57
2018-12-11T16:40:38.116Z,12.57
2018-12-11T16:43:06.324Z,13.20
2018-12-11T16:45:34.529Z,13.70
2018-12-11T16:48:02.739Z,9.67
2018-12-11T16:50:30.945Z,6.90
2018-12-11T16:52:59.157Z,30.93
2018-12-11T16:55:27.367Z,12.63
2018-12-11T16:57:55.574Z,26.50
2018-12-11T17:00:23.784Z,22.80
2018-12-11T17:02:51.988Z,20.73
2018-12-11T17:05:20.303Z,25.93
2018-12-11T17:07:48.500Z,20.90
2018-12-11T17:10:16.829Z,18.30
2018-12-11T17:12:45.055Z,27.67
2018-12-11T17:15:19.579Z,31.30
2018-12-11T17:17:47.772Z,44.33
2018-12-11T17:20:15.977Z,32.80
2018-12-11T17:22:44.181Z,25.20
2018-12-11T17:25:12.396Z,42.07
2018-12-11T17:27:40.603Z,25.43
2018-12-11T17:30:08.989Z,17.63
2018-12-11T17:32:37.421Z,17.43
2018-12-11T17:35:06.351Z,22.30
2018-12-11T17:37:34.549Z,27.47
2018-12-11T17:40:03.264Z,20.50
2018-12-11T17:42:31.473Z,17.60
2018-12-11T17:44:59.668Z,21.23
2018-12-11T17:47:27.872Z,15.00
2018-12-11T17:49:56.076Z,21.07
2018-12-11T17:52:24.280Z,15.30
2018-12-11T17:54:52.488Z,16.93
2018-12-11T17:57:20.697Z,20.27
2018-12-11T17:59:48.904Z,17.60
2018-12-11T18:02:26.025Z,24.87
2018-12-11T18:04:54.240Z,17.13
2018-12-11T18:07:22.446Z,22.53
2018-12-11T18:09:50.657Z,16.13
2018-12-11T18:12:18.865Z,24.40
2018-12-11T18:14:47.155Z,11.00
2018-12-11T18:17:15.369Z,13.20
2018-12-11T18:19:43.577Z,10.37
2018-12-11T18:22:11.788Z,17.17
2018-12-11T18:24:39.992Z,14.07
2018-12-11T18:27:08.307Z,14.37
2018-12-11T18:29:36.679Z,13.00
2018-12-11T18:32:04.912Z,7.90
2018-12-11T18:34:35.149Z,7.83
2018-12-11T18:37:03.355Z,13.23
2018-12-11T18:39:31.553Z,12.90
2018-12-11T18:41:59.750Z,8.40
2018-12-11T18:44:27.965Z,15.07
2018-12-11T18:46:56.168Z,7.43
2018-12-11T18:49:24.360Z,6.70
2018-12-11T18:51:52.565Z,8.30
2018-12-11T18:54:20.764Z,10.67
2018-12-11T18:56:48.972Z,15.10
2018-12-11T18:59:17.173Z,7.37
2018-12-11T19:01:45.470Z,13.43
2018-12-11T19:04:13.666Z,11.70
2018-12-11T19:06:41.889Z,20.53
2018-12-11T19:09:10.108Z,13.00
2018-12-11T19:11:38.330Z,10.30
2018-12-11T19:14:06.537Z,10.93
2018-12-11T19:16:34.755Z,11.00
2018-12-11T19:19:02.972Z,12.30
2018-12-11T19:21:31.278Z,17.17
2018-12-11T19:24:09.020Z,9.60
2018-12-11T19:26:37.223Z,14.00
2018-12-11T19:29:05.417Z,9.87
2018-12-11T19:31:33.705Z,12.17
2018-12-11T19:34:01.906Z,12.23
2018-12-11T19:36:30.113Z,12.20
2018-12-11T19:38:58.401Z,18.20
2018-12-11T19:41:26.608Z,11.90
2018-12-11T19:43:54.812Z,18.87
2018-12-11T19:46:23.004Z,12.97
2018-12-11T19:48:51.257Z,26.83
2018-12-11T19:51:19.456Z,19.80
2018-12-11T19:53:47.668Z,18.13
2018-12-11T19:56:16.045Z,16.10
2018-12-11T19:58:44.316Z,11.70
2018-12-11T20:01:12.516Z,10.33
2018-12-11T20:03:40.792Z,12.50
2018-12-11T20:06:09.132Z,9.57
2018-12-11T20:08:37.331Z,15.53
2018-12-11T20:11:05.525Z,12.60
2018-12-11T20:13:33.721Z,16.00
2018-12-11T20:16:01.904Z,18.63
2018-12-11T20:18:30.080Z,18.13
2018-12-11T20:20:58.348Z,10.00
2018-12-11T20:23:26.537Z,14.13
2018-12-11T20:25:54.804Z,16.93
2018-12-11T20:28:22.998Z,12.30
2018-12-11T20:30:51.180Z,9.47
2018-12-11T20:33:19.382Z,12.70
2018-12-11T20:35:47.640Z,15.47
2018-12-11T20:38:15.829Z,17.80
2018-12-11T20:40:44.053Z,13.93
2018-12-11T20:43:12.365Z,19.80
2018-12-11T20:45:40.527Z,9.90
2018-12-11T20:48:08.716Z,15.10
2018-12-11T20:50:36.904Z,10.07
2018-12-11T20:53:05.098Z,15.30
2018-12-11T20:55:33.282Z,16.23
2018-12-11T20:58:01.472Z,11.93
2018-12-11T21:00:33.677Z,14.90
2018-12-11T21:03:02.718Z,15.63
2018-12-11T21:05:30.997Z,19.87
2018-12-11T21:07:59.204Z,25.03
2018-12-11T21:10:27.387Z,24.10
2018-12-11T21:12:55.569Z,21.10
2018-12-11T21:15:23.748Z,20.17
2018-12-11T21:17:51.936Z,20.20
2018-12-11T21:20:20.731Z,16.13
2018-12-11T21:22:49.216Z,22.33
2018-12-11T21:25:17.448Z,29.50
2018-12-11T21:27:45.630Z,17.23
2018-12-11T21:30:14.000Z,20.47
2018-12-11T21:32:42.189Z,20.00
2018-12-11T21:35:10.368Z,25.07
2018-12-11T21:37:38.558Z,19.60
2018-12-11T21:40:07.281Z,16.77
2018-12-11T21:42:35.470Z,17.50
2018-12-11T21:45:04.095Z,22.60
2018-12-11T21:47:32.369Z,14.90
2018-12-11T21:50:00.706Z,11.20
2018-12-11T21:52:28.928Z,15.87
2018-12-11T21:54:57.152Z,18.13
2018-12-11T21:57:25.333Z,10.50
2018-12-11T21:59:53.561Z,17.70
2018-12-11T22:02:21.840Z,15.17
2018-12-11T22:04:50.028Z,13.57
2018-12-11T22:07:18.220Z,14.17
2018-12-11T22:09:49.001Z,10.40
2018-12-11T22:12:18.093Z,12.83
2018-12-11T22:14:46.432Z,14.47
2018-12-11T22:17:14.663Z,10.43
2018-12-11T22:19:42.839Z,9.23
2018-12-11T22:22:11.025Z,9.53
2018-12-11T22:24:39.213Z,9.60
2018-12-11T22:27:07.408Z,10.03
2018-12-11T22:29:35.580Z,20.00
2018-12-11T22:32:03.942Z,13.13
2018-12-11T22:34:32.196Z,31.27
2018-12-11T22:37:00.380Z,11.57
2018-12-11T22:39:28.556Z,11.60
2018-12-11T22:41:56.733Z,13.70
2018-12-11T22:44:24.912Z,15.50
2018-12-11T22:46:53.096Z,17.37
2018-12-11T22:49:21.285Z,16.00
2018-12-11T22:51:49.549Z,17.40
2018-12-11T22:54:18.216Z,18.40
2018-12-11T22:56:46.404Z,15.13
2018-12-11T22:59:14.585Z,12.60
2018-12-11T23:01:42.846Z,12.43
2018-12-11T23:04:11.028Z,8.60
2018-12-11T23:06:39.288Z,11.33
2018-12-11T23:09:08.216Z,18.43
2018-12-11T23:11:36.431Z,17.43
2018-12-11T23:14:04.634Z,15.50
2018-12-11T23:16:32.922Z,14.90
2018-12-11T23:19:01.168Z,26.40
2018-12-11T23:21:29.360Z,20.60
2018-12-11T23:23:57.558Z,14.43
2018-12-11T23:26:25.749Z,20.40
2018-12-11T23:28:53.945Z,15.50
2018-12-11T23:31:22.140Z,11.73
2018-12-11T23:33:50.336Z,17.63
2018-12-11T23:36:18.551Z,13.13
2018-12-11T23:38:46.756Z,15.50
2018-12-11T23:41:15.049Z,12.97
2018-12-11T23:43:43.251Z,21.87
2018-12-11T23:46:11.445Z,14.50
2018-12-11T23:48:39.649Z,16.37
2018-12-11T23:51:07.844Z,16.07
2018-12-11T23:53:36.051Z,14.20
2018-12-11T23:56:04.324Z,19.43
2018-12-11T23:58:32.523Z,22.10
